sensor_id;sensor_type;location;lat;lon;timestamp;temperature;humidity
63899;HTU21D;50070;-32.946;-60.652;2023-02-26T00:01:15;31.46;38.81
63899;HTU21D;50070;-32.946;-60.652;2023-02-26T00:03:42;31.60;38.43
63899;HTU21D;50070;-32.946;-60.652;2023-02-26T00:06:09;31.70;39.14
63899;HTU21D;50070;-32.946;-60.652;2023-02-26T00:08:35;31.54;39.48
63899;HTU21D;50070;-32.946;-60.652;2023-02-26T00:11:06;31.39;40.48
63899;HTU21D;50070;-32.946;-60.652;2023-02-26T00:13:34;31.56;40.75
63899;HTU21D;50070;-32.946;-60.652;2023-02-26T00:16:02;31.36;40.37
63899;HTU21D;50070;-32.946;-60.652;2023-02-26T00:18:29;31.33;40.66
63899;HTU21D;50070;-32.946;-60.652;2023-02-26T00:20:56;31.49;39.81
63899;HTU21D;50070;-32.946;-60.652;2023-02-26T00:23:23;31.31;39.56
63899;HTU21D;50070;-32.946;-60.652;2023-02-26T00:25:50;31.22;39.81
63899;HTU21D;50070;-32.946;-60.652;2023-02-26T00:28:17;31.09;40.23
63899;HTU21D;50070;-32.946;-60.652;2023-02-26T00:30:44;31.21;40.38
63899;HTU21D;50070;-32.946;-60.652;2023-02-26T00:33:11;30.92;41.66
63899;HTU21D;50070;-32.946;-60.652;2023-02-26T00:35:38;31.09;41.31
63899;HTU21D;50070;-32.946;-60.652;2023-02-26T00:38:08;30.97;41.26
63899;HTU21D;50070;-32.946;-60.652;2023-02-26T00:40:48;30.98;41.55
63899;HTU21D;50070;-32.946;-60.652;2023-02-26T00:43:20;30.94;41.27
63899;HTU21D;50070;-32.946;-60.652;2023-02-26T00:54:25;30.92;40.52
63899;HTU21D;50070;-32.946;-60.652;2023-02-26T00:56:54;31.02;40.68
63899;HTU21D;50070;-32.946;-60.652;2023-02-26T00:59:21;31.07;39.64
63899;HTU21D;50070;-32.946;-60.652;2023-02-26T01:01:48;30.89;40.25
63899;HTU21D;50070;-32.946;-60.652;2023-02-26T01:04:17;30.94;39.25
63899;HTU21D;50070;-32.946;-60.652;2023-02-26T01:06:48;30.91;39.78
63899;HTU21D;50070;-32.946;-60.652;2023-02-26T01:11:51;30.90;38.88
63899;HTU21D;50070;-32.946;-60.652;2023-02-26T01:14:19;30.85;38.77
63899;HTU21D;50070;-32.946;-60.652;2023-02-26T01:17:10;30.72;39.10
63899;HTU21D;50070;-32.946;-60.652;2023-02-26T01:20:10;30.90;40.20
63899;HTU21D;50070;-32.946;-60.652;2023-02-26T01:22:59;30.77;39.75
63899;HTU21D;50070;-32.946;-60.652;2023-02-26T01:25:34;31.01;38.91
63899;HTU21D;50070;-32.946;-60.652;2023-02-26T01:28:02;30.71;40.73
63899;HTU21D;50070;-32.946;-60.652;2023-02-26T01:30:29;30.74;40.66
63899;HTU21D;50070;-32.946;-60.652;2023-02-26T01:38:38;30.54;42.10
63899;HTU21D;50070;-32.946;-60.652;2023-02-26T01:49:13;30.47;42.20
63899;HTU21D;50070;-32.946;-60.652;2023-02-26T01:51:47;30.37;42.39
63899;HTU21D;50070;-32.946;-60.652;2023-02-26T01:54:23;30.32;41.56
63899;HTU21D;50070;-32.946;-60.652;2023-02-26T01:59:32;30.40;42.81
63899;HTU21D;50070;-32.946;-60.652;2023-02-26T02:02:02;30.46;43.41
63899;HTU21D;50070;-32.946;-60.652;2023-02-26T02:04:30;30.19;44.54
63899;HTU21D;50070;-32.946;-60.652;2023-02-26T02:06:59;30.27;42.87
63899;HTU21D;50070;-32.946;-60.652;2023-02-26T02:09:26;30.35;42.79
63899;HTU21D;50070;-32.946;-60.652;2023-02-26T02:15:01;30.21;43.48
63899;HTU21D;50070;-32.946;-60.652;2023-02-26T02:17:49;30.00;42.72
63899;HTU21D;50070;-32.946;-60.652;2023-02-26T02:25:47;29.86;42.84
63899;HTU21D;50070;-32.946;-60.652;2023-02-26T02:31:32;29.73;40.75
63899;HTU21D;50070;-32.946;-60.652;2023-02-26T02:34:09;29.73;41.41
63899;HTU21D;50070;-32.946;-60.652;2023-02-26T02:36:54;29.71;41.60
63899;HTU21D;50070;-32.946;-60.652;2023-02-26T02:39:30;29.70;41.77
63899;HTU21D;50070;-32.946;-60.652;2023-02-26T02:42:02;29.67;41.60
63899;HTU21D;50070;-32.946;-60.652;2023-02-26T02:44:33;29.73;41.49
63899;HTU21D;50070;-32.946;-60.652;2023-02-26T02:47:04;29.46;42.05
63899;HTU21D;50070;-32.946;-60.652;2023-02-26T02:49:40;29.56;41.78
63899;HTU21D;50070;-32.946;-60.652;2023-02-26T02:52:25;29.22;42.40
63899;HTU21D;50070;-32.946;-60.652;2023-02-26T02:55:22;29.24;42.70
63899;HTU21D;50070;-32.946;-60.652;2023-02-26T02:58:03;28.91;43.42
63899;HTU21D;50070;-32.946;-60.652;2023-02-26T03:00:33;28.78;43.47
63899;HTU21D;50070;-32.946;-60.652;2023-02-26T03:03:16;28.94;43.22
63899;HTU21D;50070;-32.946;-60.652;2023-02-26T03:05:45;29.01;42.53
63899;HTU21D;50070;-32.946;-60.652;2023-02-26T03:08:16;28.93;42.66
63899;HTU21D;50070;-32.946;-60.652;2023-02-26T03:10:43;29.03;42.20
63899;HTU21D;50070;-32.946;-60.652;2023-02-26T03:13:19;29.04;42.26
63899;HTU21D;50070;-32.946;-60.652;2023-02-26T03:26:54;28.97;42.06
63899;HTU21D;50070;-32.946;-60.652;2023-02-26T03:32:30;29.12;41.87
63899;HTU21D;50070;-32.946;-60.652;2023-02-26T03:38:12;28.54;42.21
63899;HTU21D;50070;-32.946;-60.652;2023-02-26T03:40:41;28.46;42.35
63899;HTU21D;50070;-32.946;-60.652;2023-02-26T03:43:19;28.34;42.50
63899;HTU21D;50070;-32.946;-60.652;2023-02-26T03:45:50;28.39;42.57
63899;HTU21D;50070;-32.946;-60.652;2023-02-26T03:48:23;28.32;42.68
63899;HTU21D;50070;-32.946;-60.652;2023-02-26T03:50:56;28.38;42.68
63899;HTU21D;50070;-32.946;-60.652;2023-02-26T03:53:30;28.26;43.12
63899;HTU21D;50070;-32.946;-60.652;2023-02-26T03:58:47;28.56;42.64
63899;HTU21D;50070;-32.946;-60.652;2023-02-26T04:01:21;28.25;43.55
63899;HTU21D;50070;-32.946;-60.652;2023-02-26T04:04:04;28.37;43.44
63899;HTU21D;50070;-32.946;-60.652;2023-02-26T04:06:33;28.46;43.38
63899;HTU21D;50070;-32.946;-60.652;2023-02-26T04:09:01;28.35;44.09
63899;HTU21D;50070;-32.946;-60.652;2023-02-26T04:11:28;28.27;45.18
63899;HTU21D;50070;-32.946;-60.652;2023-02-26T04:13:56;28.39;45.49
63899;HTU21D;50070;-32.946;-60.652;2023-02-26T04:16:23;28.41;45.63
63899;HTU21D;50070;-32.946;-60.652;2023-02-26T04:18:49;28.32;46.44
63899;HTU21D;50070;-32.946;-60.652;2023-02-26T04:21:16;28.21;47.41
63899;HTU21D;50070;-32.946;-60.652;2023-02-26T04:23:44;28.12;47.83
63899;HTU21D;50070;-32.946;-60.652;2023-02-26T04:26:11;28.25;47.89
63899;HTU21D;50070;-32.946;-60.652;2023-02-26T04:28:39;28.25;48.26
63899;HTU21D;50070;-32.946;-60.652;2023-02-26T04:31:06;28.08;49.08
63899;HTU21D;50070;-32.946;-60.652;2023-02-26T04:33:35;28.19;48.98
63899;HTU21D;50070;-32.946;-60.652;2023-02-26T04:36:03;28.17;49.23
63899;HTU21D;50070;-32.946;-60.652;2023-02-26T04:38:30;28.17;49.32
63899;HTU21D;50070;-32.946;-60.652;2023-02-26T04:40:56;28.37;48.87
63899;HTU21D;50070;-32.946;-60.652;2023-02-26T04:43:23;28.31;49.09
63899;HTU21D;50070;-32.946;-60.652;2023-02-26T04:45:51;28.37;49.05
63899;HTU21D;50070;-32.946;-60.652;2023-02-26T04:48:17;28.27;49.32
63899;HTU21D;50070;-32.946;-60.652;2023-02-26T04:50:44;28.17;49.70
63899;HTU21D;50070;-32.946;-60.652;2023-02-26T04:53:11;28.26;49.50
63899;HTU21D;50070;-32.946;-60.652;2023-02-26T04:55:39;28.26;49.44
63899;HTU21D;50070;-32.946;-60.652;2023-02-26T04:58:07;28.23;49.42
63899;HTU21D;50070;-32.946;-60.652;2023-02-26T05:00:34;28.40;48.95
63899;HTU21D;50070;-32.946;-60.652;2023-02-26T05:03:00;28.05;49.91
63899;HTU21D;50070;-32.946;-60.652;2023-02-26T05:05:27;27.95;50.21
63899;HTU21D;50070;-32.946;-60.652;2023-02-26T05:07:54;28.09;49.93
63899;HTU21D;50070;-32.946;-60.652;2023-02-26T05:10:22;28.01;50.05
63899;HTU21D;50070;-32.946;-60.652;2023-02-26T05:12:50;28.10;49.73
63899;HTU21D;50070;-32.946;-60.652;2023-02-26T05:15:16;28.04;49.81
63899;HTU21D;50070;-32.946;-60.652;2023-02-26T05:17:43;27.96;49.64
63899;HTU21D;50070;-32.946;-60.652;2023-02-26T05:20:11;28.00;49.55
63899;HTU21D;50070;-32.946;-60.652;2023-02-26T05:22:38;27.82;49.98
63899;HTU21D;50070;-32.946;-60.652;2023-02-26T05:25:06;27.90;49.50
63899;HTU21D;50070;-32.946;-60.652;2023-02-26T05:27:33;27.87;49.24
63899;HTU21D;50070;-32.946;-60.652;2023-02-26T05:30:00;27.84;49.48
63899;HTU21D;50070;-32.946;-60.652;2023-02-26T05:32:27;27.61;49.80
63899;HTU21D;50070;-32.946;-60.652;2023-02-26T05:34:53;27.60;49.31
63899;HTU21D;50070;-32.946;-60.652;2023-02-26T05:37:20;27.45;49.80
63899;HTU21D;50070;-32.946;-60.652;2023-02-26T05:39:47;27.51;49.31
63899;HTU21D;50070;-32.946;-60.652;2023-02-26T05:42:13;27.60;48.76
63899;HTU21D;50070;-32.946;-60.652;2023-02-26T05:44:40;27.66;48.29
63899;HTU21D;50070;-32.946;-60.652;2023-02-26T05:47:07;27.60;48.28
63899;HTU21D;50070;-32.946;-60.652;2023-02-26T05:49:34;27.76;47.28
63899;HTU21D;50070;-32.946;-60.652;2023-02-26T05:52:00;28.00;46.12
63899;HTU21D;50070;-32.946;-60.652;2023-02-26T05:54:27;27.67;46.06
63899;HTU21D;50070;-32.946;-60.652;2023-02-26T05:56:55;27.74;45.60
63899;HTU21D;50070;-32.946;-60.652;2023-02-26T05:59:22;27.72;44.94
63899;HTU21D;50070;-32.946;-60.652;2023-02-26T06:01:48;27.83;44.61
63899;HTU21D;50070;-32.946;-60.652;2023-02-26T06:04:15;27.75;44.15
63899;HTU21D;50070;-32.946;-60.652;2023-02-26T06:06:42;27.84;43.99
63899;HTU21D;50070;-32.946;-60.652;2023-02-26T06:09:09;27.86;43.80
63899;HTU21D;50070;-32.946;-60.652;2023-02-26T06:11:36;27.74;43.96
63899;HTU21D;50070;-32.946;-60.652;2023-02-26T06:14:08;27.89;43.08
63899;HTU21D;50070;-32.946;-60.652;2023-02-26T06:16:34;27.86;43.38
63899;HTU21D;50070;-32.946;-60.652;2023-02-26T06:19:02;27.51;44.17
63899;HTU21D;50070;-32.946;-60.652;2023-02-26T06:21:29;27.59;44.02
63899;HTU21D;50070;-32.946;-60.652;2023-02-26T06:23:55;27.37;44.28
63899;HTU21D;50070;-32.946;-60.652;2023-02-26T06:26:22;27.63;43.48
63899;HTU21D;50070;-32.946;-60.652;2023-02-26T06:28:49;27.72;43.22
63899;HTU21D;50070;-32.946;-60.652;2023-02-26T06:31:16;27.73;43.04
63899;HTU21D;50070;-32.946;-60.652;2023-02-26T06:33:43;27.74;43.31
63899;HTU21D;50070;-32.946;-60.652;2023-02-26T06:36:10;27.55;43.71
63899;HTU21D;50070;-32.946;-60.652;2023-02-26T06:38:36;27.72;42.98
63899;HTU21D;50070;-32.946;-60.652;2023-02-26T06:41:03;27.78;43.02
63899;HTU21D;50070;-32.946;-60.652;2023-02-26T06:43:30;27.38;44.23
63899;HTU21D;50070;-32.946;-60.652;2023-02-26T06:45:58;27.63;43.64
63899;HTU21D;50070;-32.946;-60.652;2023-02-26T06:48:26;27.28;44.47
63899;HTU21D;50070;-32.946;-60.652;2023-02-26T06:50:53;27.53;43.96
63899;HTU21D;50070;-32.946;-60.652;2023-02-26T06:53:20;27.46;44.09
63899;HTU21D;50070;-32.946;-60.652;2023-02-26T06:55:50;27.32;44.28
63899;HTU21D;50070;-32.946;-60.652;2023-02-26T06:58:17;27.23;44.16
63899;HTU21D;50070;-32.946;-60.652;2023-02-26T07:00:44;27.19;44.29
63899;HTU21D;50070;-32.946;-60.652;2023-02-26T07:03:13;27.00;44.88
63899;HTU21D;50070;-32.946;-60.652;2023-02-26T07:05:41;26.92;45.14
63899;HTU21D;50070;-32.946;-60.652;2023-02-26T07:08:08;27.11;44.56
63899;HTU21D;50070;-32.946;-60.652;2023-02-26T07:10:37;27.26;44.28
63899;HTU21D;50070;-32.946;-60.652;2023-02-26T07:13:04;27.54;43.66
63899;HTU21D;50070;-32.946;-60.652;2023-02-26T07:15:31;27.54;42.26
63899;HTU21D;50070;-32.946;-60.652;2023-02-26T07:17:58;27.01;43.40
63899;HTU21D;50070;-32.946;-60.652;2023-02-26T07:20:26;27.16;43.16
63899;HTU21D;50070;-32.946;-60.652;2023-02-26T07:22:55;27.12;43.00
63899;HTU21D;50070;-32.946;-60.652;2023-02-26T07:25:22;27.15;42.57
63899;HTU21D;50070;-32.946;-60.652;2023-02-26T07:27:50;27.10;42.55
63899;HTU21D;50070;-32.946;-60.652;2023-02-26T07:30:17;26.82;43.18
63899;HTU21D;50070;-32.946;-60.652;2023-02-26T07:32:44;27.06;42.81
63899;HTU21D;50070;-32.946;-60.652;2023-02-26T07:35:11;26.98;42.87
63899;HTU21D;50070;-32.946;-60.652;2023-02-26T07:37:39;27.00;42.45
63899;HTU21D;50070;-32.946;-60.652;2023-02-26T07:40:07;26.62;42.94
63899;HTU21D;50070;-32.946;-60.652;2023-02-26T07:42:34;26.86;42.29
63899;HTU21D;50070;-32.946;-60.652;2023-02-26T07:45:01;26.89;42.16
63899;HTU21D;50070;-32.946;-60.652;2023-02-26T07:47:28;27.08;41.79
63899;HTU21D;50070;-32.946;-60.652;2023-02-26T07:49:56;26.99;41.87
63899;HTU21D;50070;-32.946;-60.652;2023-02-26T07:52:23;27.07;41.57
63899;HTU21D;50070;-32.946;-60.652;2023-02-26T07:54:50;26.49;43.07
63899;HTU21D;50070;-32.946;-60.652;2023-02-26T07:57:18;26.33;43.46
63899;HTU21D;50070;-32.946;-60.652;2023-02-26T07:59:44;26.49;42.55
63899;HTU21D;50070;-32.946;-60.652;2023-02-26T08:02:12;26.45;42.60
63899;HTU21D;50070;-32.946;-60.652;2023-02-26T08:04:39;26.46;42.39
63899;HTU21D;50070;-32.946;-60.652;2023-02-26T08:07:07;26.40;42.49
63899;HTU21D;50070;-32.946;-60.652;2023-02-26T08:09:34;26.27;42.79
63899;HTU21D;50070;-32.946;-60.652;2023-02-26T08:12:01;26.26;42.75
63899;HTU21D;50070;-32.946;-60.652;2023-02-26T08:14:28;26.20;43.07
63899;HTU21D;50070;-32.946;-60.652;2023-02-26T08:16:55;26.27;42.44
63899;HTU21D;50070;-32.946;-60.652;2023-02-26T08:19:22;26.32;42.39
63899;HTU21D;50070;-32.946;-60.652;2023-02-26T08:21:49;26.22;42.65
63899;HTU21D;50070;-32.946;-60.652;2023-02-26T08:24:15;26.18;42.62
63899;HTU21D;50070;-32.946;-60.652;2023-02-26T08:26:42;26.42;41.89
63899;HTU21D;50070;-32.946;-60.652;2023-02-26T08:29:11;26.79;41.09
63899;HTU21D;50070;-32.946;-60.652;2023-02-26T08:31:38;26.94;40.95
63899;HTU21D;50070;-32.946;-60.652;2023-02-26T08:34:05;26.63;41.38
63899;HTU21D;50070;-32.946;-60.652;2023-02-26T08:36:32;26.46;41.77
63899;HTU21D;50070;-32.946;-60.652;2023-02-26T08:38:58;26.65;41.25
63899;HTU21D;50070;-32.946;-60.652;2023-02-26T08:41:25;26.65;41.41
63899;HTU21D;50070;-32.946;-60.652;2023-02-26T08:43:54;26.82;40.81
63899;HTU21D;50070;-32.946;-60.652;2023-02-26T08:46:21;26.33;42.07
63899;HTU21D;50070;-32.946;-60.652;2023-02-26T08:48:48;26.54;41.80
63899;HTU21D;50070;-32.946;-60.652;2023-02-26T08:51:14;26.66;41.78
63899;HTU21D;50070;-32.946;-60.652;2023-02-26T08:53:41;26.53;42.10
63899;HTU21D;50070;-32.946;-60.652;2023-02-26T08:56:10;26.36;42.62
63899;HTU21D;50070;-32.946;-60.652;2023-02-26T08:58:37;26.30;42.93
63899;HTU21D;50070;-32.946;-60.652;2023-02-26T09:01:04;26.20;43.26
63899;HTU21D;50070;-32.946;-60.652;2023-02-26T09:03:30;25.94;43.73
63899;HTU21D;50070;-32.946;-60.652;2023-02-26T09:05:57;26.11;43.47
63899;HTU21D;50070;-32.946;-60.652;2023-02-26T09:08:24;26.42;42.86
63899;HTU21D;50070;-32.946;-60.652;2023-02-26T09:10:51;26.12;43.89
63899;HTU21D;50070;-32.946;-60.652;2023-02-26T09:13:18;26.30;43.59
63899;HTU21D;50070;-32.946;-60.652;2023-02-26T09:15:44;26.39;43.36
63899;HTU21D;50070;-32.946;-60.652;2023-02-26T09:18:14;25.72;45.39
63899;HTU21D;50070;-32.946;-60.652;2023-02-26T09:20:44;26.13;44.19
63899;HTU21D;50070;-32.946;-60.652;2023-02-26T09:23:11;25.93;44.90
63899;HTU21D;50070;-32.946;-60.652;2023-02-26T09:25:38;26.25;43.89
63899;HTU21D;50070;-32.946;-60.652;2023-02-26T09:28:07;26.07;44.36
63899;HTU21D;50070;-32.946;-60.652;2023-02-26T09:30:34;25.82;45.16
63899;HTU21D;50070;-32.946;-60.652;2023-02-26T09:33:00;25.94;44.96
63899;HTU21D;50070;-32.946;-60.652;2023-02-26T09:35:27;25.99;44.85
63899;HTU21D;50070;-32.946;-60.652;2023-02-26T09:37:54;25.77;45.44
63899;HTU21D;50070;-32.946;-60.652;2023-02-26T09:43:27;25.98;44.80
63899;HTU21D;50070;-32.946;-60.652;2023-02-26T09:45:58;25.54;46.11
63899;HTU21D;50070;-32.946;-60.652;2023-02-26T09:48:28;25.31;46.80
63899;HTU21D;50070;-32.946;-60.652;2023-02-26T09:50:58;25.36;46.90
63899;HTU21D;50070;-32.946;-60.652;2023-02-26T09:53:30;25.39;46.72
63899;HTU21D;50070;-32.946;-60.652;2023-02-26T09:56:13;25.77;46.09
63899;HTU21D;50070;-32.946;-60.652;2023-02-26T09:58:43;25.68;46.25
63899;HTU21D;50070;-32.946;-60.652;2023-02-26T10:12:29;25.80;45.95
63899;HTU21D;50070;-32.946;-60.652;2023-02-26T10:15:02;25.86;46.25
63899;HTU21D;50070;-32.946;-60.652;2023-02-26T10:20:09;25.67;47.89
63899;HTU21D;50070;-32.946;-60.652;2023-02-26T10:22:50;25.75;48.09
63899;HTU21D;50070;-32.946;-60.652;2023-02-26T10:25:22;25.74;48.17
63899;HTU21D;50070;-32.946;-60.652;2023-02-26T10:30:58;25.65;48.90
63899;HTU21D;50070;-32.946;-60.652;2023-02-26T10:37:07;25.72;49.15
63899;HTU21D;50070;-32.946;-60.652;2023-02-26T10:39:37;25.48;49.98
63899;HTU21D;50070;-32.946;-60.652;2023-02-26T10:47:44;25.94;48.79
63899;HTU21D;50070;-32.946;-60.652;2023-02-26T10:50:14;25.90;48.90
63899;HTU21D;50070;-32.946;-60.652;2023-02-26T10:52:43;26.09;48.19
63899;HTU21D;50070;-32.946;-60.652;2023-02-26T10:55:28;25.91;48.70
63899;HTU21D;50070;-32.946;-60.652;2023-02-26T11:00:29;25.93;48.73
63899;HTU21D;50070;-32.946;-60.652;2023-02-26T11:02:56;26.10;48.50
63899;HTU21D;50070;-32.946;-60.652;2023-02-26T11:05:25;25.99;48.88
63899;HTU21D;50070;-32.946;-60.652;2023-02-26T11:08:22;25.92;49.39
63899;HTU21D;50070;-32.946;-60.652;2023-02-26T11:11:00;26.11;49.06
63899;HTU21D;50070;-32.946;-60.652;2023-02-26T11:13:30;26.03;49.70
63899;HTU21D;50070;-32.946;-60.652;2023-02-26T11:16:00;25.93;50.58
63899;HTU21D;50070;-32.946;-60.652;2023-02-26T11:18:37;25.79;51.48
63899;HTU21D;50070;-32.946;-60.652;2023-02-26T11:21:07;25.83;51.67
63899;HTU21D;50070;-32.946;-60.652;2023-02-26T11:23:34;25.97;50.78
63899;HTU21D;50070;-32.946;-60.652;2023-02-26T11:31:03;25.31;51.09
63899;HTU21D;50070;-32.946;-60.652;2023-02-26T11:33:39;25.35;50.79
63899;HTU21D;50070;-32.946;-60.652;2023-02-26T11:36:10;24.49;53.46
63899;HTU21D;50070;-32.946;-60.652;2023-02-26T11:38:39;24.70;52.89
63899;HTU21D;50070;-32.946;-60.652;2023-02-26T11:41:05;24.97;52.07
63899;HTU21D;50070;-32.946;-60.652;2023-02-26T11:43:44;24.79;52.67
63899;HTU21D;50070;-32.946;-60.652;2023-02-26T11:46:11;24.27;54.59
63899;HTU21D;50070;-32.946;-60.652;2023-02-26T11:48:59;24.49;54.10
63899;HTU21D;50070;-32.946;-60.652;2023-02-26T11:51:28;24.85;52.79
63899;HTU21D;50070;-32.946;-60.652;2023-02-26T11:53:57;24.44;54.33
63899;HTU21D;50070;-32.946;-60.652;2023-02-26T11:59:06;24.71;53.72
63899;HTU21D;50070;-32.946;-60.652;2023-02-26T12:01:35;24.57;54.27
63899;HTU21D;50070;-32.946;-60.652;2023-02-26T12:04:03;24.71;53.85
63899;HTU21D;50070;-32.946;-60.652;2023-02-26T12:06:29;24.78;53.78
63899;HTU21D;50070;-32.946;-60.652;2023-02-26T12:08:56;24.42;55.12
63899;HTU21D;50070;-32.946;-60.652;2023-02-26T12:11:47;24.44;55.11
63899;HTU21D;50070;-32.946;-60.652;2023-02-26T12:20:06;24.54;55.46
63899;HTU21D;50070;-32.946;-60.652;2023-02-26T12:25:52;25.14;53.88
63899;HTU21D;50070;-32.946;-60.652;2023-02-26T12:31:29;25.12;54.08
63899;HTU21D;50070;-32.946;-60.652;2023-02-26T12:45:11;24.99;54.97
63899;HTU21D;50070;-32.946;-60.652;2023-02-26T12:48:28;25.19;54.24
63899;HTU21D;50070;-32.946;-60.652;2023-02-26T13:10:59;26.54;50.84
63899;HTU21D;50070;-32.946;-60.652;2023-02-26T13:19:51;27.65;47.59
63899;HTU21D;50070;-32.946;-60.652;2023-02-26T13:22:21;27.66;47.25
63899;HTU21D;50070;-32.946;-60.652;2023-02-26T13:27:32;26.62;50.09
63899;HTU21D;50070;-32.946;-60.652;2023-02-26T13:32:50;27.05;48.51
63899;HTU21D;50070;-32.946;-60.652;2023-02-26T13:37:55;26.66;49.46
63899;HTU21D;50070;-32.946;-60.652;2023-02-26T13:51:53;27.69;46.31
63899;HTU21D;50070;-32.946;-60.652;2023-02-26T13:57:07;27.23;47.79
63899;HTU21D;50070;-32.946;-60.652;2023-02-26T13:59:52;27.36;47.67
63899;HTU21D;50070;-32.946;-60.652;2023-02-26T14:04:56;27.59;46.52
63899;HTU21D;50070;-32.946;-60.652;2023-02-26T14:10:44;28.02;45.63
63899;HTU21D;50070;-32.946;-60.652;2023-02-26T14:13:20;28.34;44.76
63899;HTU21D;50070;-32.946;-60.652;2023-02-26T14:16:00;28.01;45.24
63899;HTU21D;50070;-32.946;-60.652;2023-02-26T14:24:17;28.33;43.71
63899;HTU21D;50070;-32.946;-60.652;2023-02-26T14:26:46;28.37;43.39
63899;HTU21D;50070;-32.946;-60.652;2023-02-26T14:29:25;28.63;43.12
63899;HTU21D;50070;-32.946;-60.652;2023-02-26T14:34:52;28.90;41.62
63899;HTU21D;50070;-32.946;-60.652;2023-02-26T14:37:24;28.50;42.37
63899;HTU21D;50070;-32.946;-60.652;2023-02-26T14:40:12;28.28;43.44
63899;HTU21D;50070;-32.946;-60.652;2023-02-26T14:42:55;29.12;41.81
63899;HTU21D;50070;-32.946;-60.652;2023-02-26T14:45:39;28.89;41.76
63899;HTU21D;50070;-32.946;-60.652;2023-02-26T14:48:13;29.22;40.86
63899;HTU21D;50070;-32.946;-60.652;2023-02-26T14:53:35;29.68;39.72
63899;HTU21D;50070;-32.946;-60.652;2023-02-26T14:59:04;29.56;39.43
63899;HTU21D;50070;-32.946;-60.652;2023-02-26T15:02:12;30.06;38.69
63899;HTU21D;50070;-32.946;-60.652;2023-02-26T15:10:15;30.15;37.40
63899;HTU21D;50070;-32.946;-60.652;2023-02-26T15:13:08;30.13;37.45
63899;HTU21D;50070;-32.946;-60.652;2023-02-26T15:16:13;30.08;37.36
63899;HTU21D;50070;-32.946;-60.652;2023-02-26T15:21:44;30.08;40.34
63899;HTU21D;50070;-32.946;-60.652;2023-02-26T15:24:13;30.40;39.81
63899;HTU21D;50070;-32.946;-60.652;2023-02-26T15:26:53;30.15;38.87
63899;HTU21D;50070;-32.946;-60.652;2023-02-26T15:29:27;30.33;38.01
63899;HTU21D;50070;-32.946;-60.652;2023-02-26T15:31:59;30.54;37.77
63899;HTU21D;50070;-32.946;-60.652;2023-02-26T15:34:28;30.75;37.99
63899;HTU21D;50070;-32.946;-60.652;2023-02-26T15:36:56;30.82;38.40
63899;HTU21D;50070;-32.946;-60.652;2023-02-26T15:39:24;30.95;38.38
63899;HTU21D;50070;-32.946;-60.652;2023-02-26T15:41:52;30.39;38.66
63899;HTU21D;50070;-32.946;-60.652;2023-02-26T15:44:30;30.28;38.96
63899;HTU21D;50070;-32.946;-60.652;2023-02-26T15:47:02;30.28;38.82
63899;HTU21D;50070;-32.946;-60.652;2023-02-26T15:49:38;30.87;35.87
63899;HTU21D;50070;-32.946;-60.652;2023-02-26T15:52:07;31.31;34.40
63899;HTU21D;50070;-32.946;-60.652;2023-02-26T15:55:05;30.60;35.39
63899;HTU21D;50070;-32.946;-60.652;2023-02-26T15:57:32;30.68;35.66
63899;HTU21D;50070;-32.946;-60.652;2023-02-26T16:00:08;30.95;36.00
63899;HTU21D;50070;-32.946;-60.652;2023-02-26T16:02:40;30.57;36.94
63899;HTU21D;50070;-32.946;-60.652;2023-02-26T16:05:07;30.54;36.99
63899;HTU21D;50070;-32.946;-60.652;2023-02-26T16:07:34;30.21;37.50
63899;HTU21D;50070;-32.946;-60.652;2023-02-26T16:10:06;30.93;35.85
63899;HTU21D;50070;-32.946;-60.652;2023-02-26T16:12:36;31.11;35.49
63899;HTU21D;50070;-32.946;-60.652;2023-02-26T16:15:18;31.43;33.86
63899;HTU21D;50070;-32.946;-60.652;2023-02-26T16:17:48;31.44;34.28
63899;HTU21D;50070;-32.946;-60.652;2023-02-26T16:20:21;31.33;35.01
63899;HTU21D;50070;-32.946;-60.652;2023-02-26T16:22:52;31.46;34.85
63899;HTU21D;50070;-32.946;-60.652;2023-02-26T16:25:36;31.56;34.57
63899;HTU21D;50070;-32.946;-60.652;2023-02-26T16:28:06;31.78;34.53
63899;HTU21D;50070;-32.946;-60.652;2023-02-26T16:30:39;31.60;32.64
63899;HTU21D;50070;-32.946;-60.652;2023-02-26T16:33:13;31.83;32.69
63899;HTU21D;50070;-32.946;-60.652;2023-02-26T16:35:49;32.03;30.87
63899;HTU21D;50070;-32.946;-60.652;2023-02-26T16:38:32;32.12;30.46
63899;HTU21D;50070;-32.946;-60.652;2023-02-26T16:41:12;32.32;31.53
63899;HTU21D;50070;-32.946;-60.652;2023-02-26T16:46:41;31.92;30.13
63899;HTU21D;50070;-32.946;-60.652;2023-02-26T16:49:29;32.11;30.11
63899;HTU21D;50070;-32.946;-60.652;2023-02-26T16:51:57;32.02;29.93
63899;HTU21D;50070;-32.946;-60.652;2023-02-26T16:54:36;31.81;30.42
63899;HTU21D;50070;-32.946;-60.652;2023-02-26T16:57:40;31.57;30.96
63899;HTU21D;50070;-32.946;-60.652;2023-02-26T17:00:20;31.98;30.77
63899;HTU21D;50070;-32.946;-60.652;2023-02-26T17:03:10;32.08;31.68
63899;HTU21D;50070;-32.946;-60.652;2023-02-26T17:05:41;32.12;31.66
63899;HTU21D;50070;-32.946;-60.652;2023-02-26T17:08:18;32.27;31.41
63899;HTU21D;50070;-32.946;-60.652;2023-02-26T17:10:52;32.49;30.46
63899;HTU21D;50070;-32.946;-60.652;2023-02-26T17:13:31;32.28;29.77
63899;HTU21D;50070;-32.946;-60.652;2023-02-26T17:16:01;32.41;30.62
63899;HTU21D;50070;-32.946;-60.652;2023-02-26T17:18:28;32.23;28.33
63899;HTU21D;50070;-32.946;-60.652;2023-02-26T17:20:56;32.44;27.92
63899;HTU21D;50070;-32.946;-60.652;2023-02-26T17:23:29;32.39;27.42
63899;HTU21D;50070;-32.946;-60.652;2023-02-26T17:25:56;32.25;26.74
63899;HTU21D;50070;-32.946;-60.652;2023-02-26T17:28:30;32.43;27.09
63899;HTU21D;50070;-32.946;-60.652;2023-02-26T17:30:59;32.39;26.79
63899;HTU21D;50070;-32.946;-60.652;2023-02-26T17:33:26;32.48;26.66
63899;HTU21D;50070;-32.946;-60.652;2023-02-26T17:36:00;32.74;25.99
63899;HTU21D;50070;-32.946;-60.652;2023-02-26T17:38:28;32.58;26.38
63899;HTU21D;50070;-32.946;-60.652;2023-02-26T17:40:55;32.62;25.07
63899;HTU21D;50070;-32.946;-60.652;2023-02-26T17:43:22;32.79;25.52
63899;HTU21D;50070;-32.946;-60.652;2023-02-26T17:45:50;33.11;25.71
63899;HTU21D;50070;-32.946;-60.652;2023-02-26T17:48:17;33.04;24.59
63899;HTU21D;50070;-32.946;-60.652;2023-02-26T17:50:50;33.07;24.42
63899;HTU21D;50070;-32.946;-60.652;2023-02-26T17:53:18;32.85;24.75
63899;HTU21D;50070;-32.946;-60.652;2023-02-26T17:55:47;32.87;25.20
63899;HTU21D;50070;-32.946;-60.652;2023-02-26T17:58:18;32.69;25.06
63899;HTU21D;50070;-32.946;-60.652;2023-02-26T18:00:47;32.76;25.37
63899;HTU21D;50070;-32.946;-60.652;2023-02-26T18:03:17;32.99;24.30
63899;HTU21D;50070;-32.946;-60.652;2023-02-26T18:05:48;32.98;24.12
63899;HTU21D;50070;-32.946;-60.652;2023-02-26T18:08:25;32.98;24.10
63899;HTU21D;50070;-32.946;-60.652;2023-02-26T18:10:53;33.12;23.73
63899;HTU21D;50070;-32.946;-60.652;2023-02-26T18:13:20;33.36;22.59
63899;HTU21D;50070;-32.946;-60.652;2023-02-26T18:15:48;32.97;23.30
63899;HTU21D;50070;-32.946;-60.652;2023-02-26T18:18:15;33.14;23.86
63899;HTU21D;50070;-32.946;-60.652;2023-02-26T18:20:43;33.33;23.50